createdAt,value
2024-02-28T00:03:28.021Z,3.60
2024-02-28T00:08:29.940Z,5.03
2024-02-28T00:13:32.162Z,3.38
2024-02-28T00:18:34.162Z,4.57
2024-02-28T00:23:36.141Z,3.78
2024-02-28T00:28:38.170Z,5.13
2024-02-28T00:33:40.162Z,4.47
2024-02-28T00:38:42.404Z,3.83
2024-02-28T00:43:44.441Z,4.57
2024-02-28T00:48:46.557Z,3.70
2024-02-28T00:53:48.537Z,4.47
2024-02-28T00:58:50.787Z,4.13
2024-02-28T01:03:52.892Z,5.07
2024-02-28T01:08:54.840Z,6.20
2024-02-28T01:13:56.957Z,3.80
2024-02-28T01:18:59.189Z,4.00
2024-02-28T01:24:01.383Z,4.30
2024-02-28T01:29:04.305Z,3.75
2024-02-28T01:34:06.357Z,4.32
2024-02-28T01:39:08.539Z,3.90
2024-02-28T01:44:10.669Z,4.13
2024-02-28T01:49:12.559Z,3.58
2024-02-28T01:54:15.020Z,3.95
2024-02-28T01:59:18.830Z,4.45
2024-02-28T02:04:20.641Z,3.83
2024-02-28T02:09:22.775Z,4.38
2024-02-28T02:14:24.719Z,4.20
2024-02-28T02:19:27.229Z,4.25
2024-02-28T02:24:29.197Z,5.28
2024-02-28T02:29:31.259Z,4.78
2024-02-28T02:34:33.589Z,4.38
2024-02-28T02:39:35.673Z,4.80
2024-02-28T02:44:37.802Z,4.32
2024-02-28T02:49:39.784Z,4.55
2024-02-28T02:54:41.920Z,5.53
2024-02-28T02:59:43.856Z,5.45
2024-02-28T03:04:46.025Z,4.90
2024-02-28T03:09:48.071Z,4.35
2024-02-28T03:14:50.212Z,4.50
2024-02-28T03:19:52.315Z,5.38
2024-02-28T03:24:54.321Z,5.57
2024-02-28T03:29:56.373Z,6.22
2024-02-28T03:34:58.357Z,4.93
2024-02-28T03:40:00.445Z,5.07
2024-02-28T03:45:02.439Z,4.85
2024-02-28T03:50:05.370Z,3.72
2024-02-28T03:55:07.926Z,4.95
2024-02-28T04:00:10.480Z,4.13
2024-02-28T04:05:12.376Z,6.03
2024-02-28T04:10:14.401Z,4.40
2024-02-28T04:15:16.563Z,4.72
2024-02-28T04:20:18.976Z,5.28
2024-02-28T04:25:21.001Z,4.40
2024-02-28T04:30:23.017Z,4.50
2024-02-28T04:35:25.100Z,4.68
2024-02-28T04:40:27.028Z,4.28
2024-02-28T04:45:30.403Z,3.28
2024-02-28T04:50:32.437Z,3.25
2024-02-28T04:55:34.381Z,3.88
2024-02-28T05:00:36.358Z,3.45
2024-02-28T05:05:38.374Z,5.47
2024-02-28T05:10:41.588Z,2.97
2024-02-28T05:15:43.425Z,4.53
2024-02-28T05:20:45.418Z,2.70
2024-02-28T05:25:47.960Z,3.92
2024-02-28T05:30:51.193Z,3.03
2024-02-28T05:35:53.210Z,3.30
2024-02-28T05:40:55.311Z,4.65
2024-02-28T05:45:57.399Z,7.70
2024-02-28T05:50:59.568Z,3.63
2024-02-28T05:56:01.593Z,3.45
2024-02-28T06:01:03.881Z,3.30
2024-02-28T06:06:06.604Z,3.35
2024-02-28T06:11:09.133Z,4.10
2024-02-28T06:16:17.702Z,4.38
2024-02-28T06:21:19.791Z,5.05
2024-02-28T06:26:22.356Z,7.45
2024-02-28T06:31:24.441Z,4.82
2024-02-28T06:36:26.529Z,4.82
2024-02-28T06:41:28.676Z,4.90
2024-02-28T06:46:30.530Z,6.75
2024-02-28T06:51:32.798Z,6.43
2024-02-28T06:56:34.907Z,5.55
2024-02-28T07:01:37.005Z,6.63
2024-02-28T07:06:39.493Z,5.22
2024-02-28T07:11:41.461Z,6.05
2024-02-28T07:16:43.826Z,5.97
2024-02-28T07:21:46.300Z,4.78
2024-02-28T07:26:48.377Z,5.90
2024-02-28T07:31:53.094Z,5.13
2024-02-28T07:36:55.357Z,10.15
2024-02-28T07:41:57.539Z,12.68
2024-02-28T07:47:00.226Z,5.32
2024-02-28T07:52:02.489Z,5.47
2024-02-28T07:57:04.771Z,4.82
2024-02-28T08:02:07.007Z,4.72
2024-02-28T08:07:09.250Z,4.72
2024-02-28T08:12:11.975Z,4.10
2024-02-28T08:17:15.172Z,5.22
2024-02-28T08:22:17.230Z,5.85
2024-02-28T08:27:19.267Z,5.60
2024-02-28T08:32:22.160Z,6.10
2024-02-28T08:37:24.239Z,6.82
2024-02-28T08:42:27.289Z,6.50
2024-02-28T08:47:29.286Z,6.10
2024-02-28T08:52:31.456Z,7.88
2024-02-28T08:57:33.679Z,6.68
2024-02-28T09:02:36.305Z,5.10
2024-02-28T09:07:38.186Z,5.85
2024-02-28T09:12:40.286Z,5.57
2024-02-28T09:17:42.512Z,5.00
2024-02-28T09:22:44.405Z,6.20
2024-02-28T09:27:46.521Z,4.28
2024-02-28T09:32:49.936Z,4.78
2024-02-28T09:37:52.144Z,4.88
2024-02-28T09:43:01.649Z,5.00
2024-02-28T09:48:05.150Z,6.13
2024-02-28T09:53:10.893Z,4.80
2024-02-28T09:58:13.484Z,6.65
2024-02-28T10:03:20.454Z,5.95
2024-02-28T10:08:22.645Z,5.25
2024-02-28T10:13:24.678Z,5.32
2024-02-28T10:18:27.675Z,6.93
2024-02-28T10:23:29.924Z,8.18
2024-02-28T10:28:32.118Z,4.95
2024-02-28T10:33:34.957Z,4.35
2024-02-28T10:38:40.065Z,4.30
2024-02-28T10:43:43.253Z,4.07
2024-02-28T10:48:45.505Z,3.80
2024-02-28T10:53:51.165Z,3.95
2024-02-28T10:58:54.425Z,3.85
2024-02-28T11:03:57.722Z,3.08
2024-02-28T11:09:01.901Z,6.63
2024-02-28T11:14:03.848Z,4.00
2024-02-28T11:19:06.082Z,3.70
2024-02-28T11:24:08.121Z,3.40
2024-02-28T11:29:10.555Z,3.20
2024-02-28T11:34:12.766Z,3.67
2024-02-28T11:39:15.226Z,3.88
2024-02-28T11:44:18.473Z,4.30
2024-02-28T11:49:20.685Z,2.42
2024-02-28T11:54:22.801Z,3.40
2024-02-28T11:59:24.866Z,2.70
2024-02-28T12:04:27.043Z,3.53
2024-02-28T12:09:38.195Z,3.10
2024-02-28T12:14:44.891Z,3.80
2024-02-28T12:19:46.831Z,2.72
2024-02-28T12:24:48.986Z,1.55
2024-02-28T12:29:50.939Z,3.67
2024-02-28T12:34:52.955Z,1.90
2024-02-28T12:39:54.973Z,2.00
2024-02-28T12:44:57.158Z,2.33
2024-02-28T12:49:59.251Z,1.92
2024-02-28T12:55:02.478Z,2.00
2024-02-28T13:00:05.131Z,1.98
2024-02-28T13:05:07.548Z,1.98
2024-02-28T13:10:10.857Z,1.58
2024-02-28T13:15:12.887Z,2.25
2024-02-28T13:20:14.988Z,2.08
2024-02-28T13:25:19.657Z,1.50
2024-02-28T13:30:21.619Z,1.10
2024-02-28T13:35:23.593Z,1.77
2024-02-28T13:40:25.475Z,2.47
2024-02-28T13:45:27.642Z,2.35
2024-02-28T13:50:33.257Z,3.80
2024-02-28T13:55:35.524Z,1.23
2024-02-28T14:00:37.613Z,1.13
2024-02-28T14:05:39.789Z,2.40
2024-02-28T14:10:42.015Z,2.03
2024-02-28T14:15:44.102Z,8.48
2024-02-28T14:20:46.648Z,2.13
2024-02-28T14:25:49.163Z,1.10
2024-02-28T14:30:51.375Z,0.88
2024-02-28T14:35:53.419Z,0.90
2024-02-28T14:40:55.409Z,1.10
2024-02-28T14:45:57.525Z,2.08
2024-02-28T14:50:59.613Z,0.70
2024-02-28T14:56:01.851Z,0.70
2024-02-28T15:01:04.445Z,1.42
2024-02-28T15:06:06.492Z,1.30
2024-02-28T15:11:08.478Z,0.68
2024-02-28T15:16:10.763Z,0.98
2024-02-28T15:21:12.991Z,1.08
2024-02-28T15:26:15.465Z,0.80
2024-02-28T15:31:17.637Z,1.10
2024-02-28T15:36:19.686Z,0.93
2024-02-28T15:41:21.718Z,1.63
2024-02-28T15:46:23.712Z,1.80
2024-02-28T15:51:26.065Z,1.20
2024-02-28T15:56:28.158Z,1.15
2024-02-28T16:01:30.146Z,5.10
2024-02-28T16:06:37.413Z,1.15
2024-02-28T16:11:44.062Z,12.40
2024-02-28T16:16:46.590Z,7.40
2024-02-28T16:21:50.766Z,1.55
2024-02-28T16:26:52.929Z,1.25
2024-02-28T16:31:56.815Z,0.70
2024-02-28T16:36:59.338Z,0.85
2024-02-28T16:42:01.376Z,0.60
2024-02-28T16:47:03.681Z,7.57
2024-02-28T16:52:05.740Z,2.50
2024-02-28T16:57:08.456Z,0.70
2024-02-28T17:02:10.513Z,0.82
2024-02-28T17:07:17.192Z,2.15
2024-02-28T17:12:19.431Z,0.80
2024-02-28T17:17:21.938Z,0.77
2024-02-28T17:22:23.940Z,1.02
2024-02-28T17:27:26.456Z,0.52
2024-02-28T17:32:28.558Z,2.25
2024-02-28T17:37:30.986Z,0.73
2024-02-28T17:42:33.073Z,0.63
2024-02-28T17:47:36.176Z,0.98
2024-02-28T17:52:40.919Z,0.60
2024-02-28T17:57:43.623Z,0.63
2024-02-28T18:02:45.615Z,0.88
2024-02-28T18:07:47.542Z,1.00
2024-02-28T18:12:49.787Z,1.25
2024-02-28T18:17:51.899Z,0.50
2024-02-28T18:22:54.021Z,0.50
2024-02-28T18:27:56.196Z,0.80
2024-02-28T18:32:58.186Z,0.77
2024-02-28T18:38:01.305Z,0.70
2024-02-28T18:43:04.263Z,1.30
2024-02-28T18:48:08.045Z,0.57
2024-02-28T18:53:10.088Z,0.98
2024-02-28T18:58:12.268Z,2.05
2024-02-28T19:03:14.695Z,0.68
2024-02-28T19:08:19.784Z,1.90
2024-02-28T19:13:21.796Z,0.85
2024-02-28T19:18:23.666Z,0.50
2024-02-28T19:23:25.648Z,0.57
2024-02-28T19:28:28.776Z,0.73
2024-02-28T19:33:30.792Z,0.50
2024-02-28T19:38:33.412Z,0.60
2024-02-28T19:43:35.759Z,0.60
2024-02-28T19:48:43.388Z,0.32
2024-02-28T19:53:46.571Z,0.45
2024-02-28T19:58:49.378Z,1.17
2024-02-28T20:03:51.539Z,0.60
2024-02-28T20:08:53.508Z,0.95
2024-02-28T20:13:55.625Z,0.55
2024-02-28T20:18:57.605Z,0.50
2024-02-28T20:23:59.565Z,1.38
2024-02-28T20:29:02.065Z,0.60
2024-02-28T20:34:04.089Z,1.48
2024-02-28T20:39:06.226Z,1.40
2024-02-28T20:44:12.008Z,0.40
2024-02-28T20:49:14.028Z,0.43
2024-02-28T20:54:15.932Z,0.70
2024-02-28T20:59:17.784Z,0.98
2024-02-28T21:04:19.980Z,0.47
2024-02-28T21:09:22.223Z,0.60
2024-02-28T21:14:24.240Z,1.25
2024-02-28T21:19:26.982Z,0.32
2024-02-28T21:24:29.075Z,1.00
2024-02-28T21:29:31.015Z,4.22
2024-02-28T21:34:33.121Z,0.70
2024-02-28T21:39:35.370Z,0.68
2024-02-28T21:44:37.418Z,0.45
2024-02-28T21:49:42.018Z,0.80
2024-02-28T21:54:44.549Z,0.68
2024-02-28T21:59:48.489Z,0.98
2024-02-28T22:04:51.995Z,0.77
2024-02-28T22:09:54.158Z,1.10
2024-02-28T22:14:56.176Z,1.35
2024-02-28T22:19:58.223Z,0.73
2024-02-28T22:25:00.377Z,1.10
2024-02-28T22:30:02.733Z,1.00
2024-02-28T22:35:06.532Z,1.40
2024-02-28T22:40:09.203Z,1.40
2024-02-28T22:45:12.310Z,2.38
2024-02-28T22:50:14.474Z,3.03
2024-02-28T22:55:20.877Z,3.95
2024-02-28T23:00:34.372Z,2.40
2024-02-28T23:05:36.459Z,2.25
2024-02-28T23:10:38.593Z,1.05
2024-02-28T23:15:42.057Z,1.65
2024-02-28T23:20:44.577Z,3.08
2024-02-28T23:25:46.637Z,3.28
2024-02-28T23:30:48.565Z,3.17
2024-02-28T23:35:50.628Z,4.63
2024-02-28T23:40:52.563Z,4.82
2024-02-28T23:45:54.438Z,3.70
2024-02-28T23:50:56.691Z,4.00
2024-02-28T23:55:58.626Z,3.75
